^^
Meteo Knjazevac Station Historical Data
Daily Summary for August 13, 2022 Units:  English    Metric   Both
Daily Weekly Monthly Yearly Custom
  High: Low: Average:
Temperature: 77.5 °F 63.7 °F 70.3 °F
Dew Point: 67.9 °F 61.8 °F 64.9 °F
Humidity: 99% 68.5% 84%
Wind Speed: 7.2mph 0mph 2.9mph
Wind Gust: 9mph - -
Wind- - ESE
Pressure: 30.00 in 29.91 in -
Precipitation: 0.05 in    
Historical Graphs
 
 
Tabular Data for August 13, 2022
Time Temperature Dew Point Pressure Wind Wind Speed Wind Gust Humidity Rainfall Rate (Hourly) solar Conditions
00:03 71.1 °F 62.7 °F 30.00 in ESE 1.6 mph 3 mph 74.8% 0.00 in 0 W/m2
00:09 70.9 °F 62.6 °F 30.00 in ENE 2.8 mph 2 mph 75% 0.00 in 0 W/m2
00:14 70.7 °F 62.4 °F 30.00 in East 3.3 mph 3 mph 75% 0.00 in 0 W/m2
00:19 70.6 °F 62.3 °F 30.00 in SE 3.5 mph 5 mph 75% 0.00 in 0 W/m2
00:24 70.4 °F 62.4 °F 29.99 in SE 4.7 mph 5 mph 75.7% 0.00 in 0 W/m2
00:29 70.2 °F 62.6 °F 29.99 in SE 3.3 mph 6 mph 76.9% 0.00 in 0 W/m2
00:34 70.1 °F 62.4 °F 29.99 in ESE 3.6 mph 4 mph 76.8% 0.00 in 0 W/m2
00:39 69.9 °F 62.3 °F 29.99 in East 4.1 mph 5 mph 77% 0.00 in 0 W/m2
00:44 69.5 °F 62.1 °F 29.99 in ESE 5.2 mph 5 mph 77.2% 0.00 in 0 W/m2
00:49 69.3 °F 62.1 °F 29.99 in ESE 3.7 mph 6 mph 78% 0.00 in 0 W/m2
00:54 69.3 °F 62.1 °F 29.99 in ESE 2.6 mph 3 mph 78% 0.00 in 0 W/m2
00:59 69.1 °F 62.1 °F 29.99 in ENE 2.2 mph 3 mph 78.4% 0.00 in 0 W/m2
01:04 69 °F 62.2 °F 29.99 in North 2.7 mph 2 mph 79% 0.00 in 0 W/m2
01:09 68.8 °F 62 °F 29.99 in NW 2.2 mph 3 mph 79% 0.00 in 0 W/m2
01:14 68.6 °F 61.9 °F 29.99 in NE 2.2 mph 1.1 mph 79.1% 0.00 in 0 W/m2
01:19 68.5 °F 61.8 °F 29.99 in East 3.1 mph 1.3 mph 79.2% 0.00 in 0 W/m2
01:24 68.4 °F 62 °F 29.99 in SE 2.9 mph 3 mph 80% 0.00 in 0 W/m2
01:29 68.4 °F 61.9 °F 29.98 in SSE 4.9 mph 3 mph 80% 0.00 in 0 W/m2
01:34 68.4 °F 61.9 °F 29.98 in SE 2.8 mph 6 mph 80% 0.00 in 0 W/m2
01:39 68.4 °F 61.9 °F 29.98 in SE 2.8 mph 3 mph 80% 0.00 in 0 W/m2
01:44 68.4 °F 62.1 °F 29.98 in ESE 1.3 mph 3 mph 80.6% 0.00 in 0 W/m2
01:49 68.3 °F 62.1 °F 29.98 in NE 2.5 mph 2.5 mph 80.7% 0.00 in 0 W/m2
01:54 68.2 °F 62.1 °F 29.98 in NE 3.1 mph 3 mph 80.9% 0.00 in 0 W/m2
01:59 68 °F 61.9 °F 29.97 in NE 3.2 mph 3 mph 81% 0.00 in 0 W/m2
02:04 67.8 °F 62.6 °F 29.97 in ENE 1.4 mph 4 mph 83.4% 0.00 in 0 W/m2
02:09 67.6 °F 62.6 °F 29.97 in NNW 0.4 mph 0.2 mph 84% 0.00 in 0 W/m2
02:14 67.4 °F 62.5 °F 29.97 in NNW 2.1 mph 2 mph 84.4% 0.00 in 0 W/m2
02:19 67.1 °F 62.4 °F 29.97 in NW 2.2 mph 3 mph 85% 0.00 in 0 W/m2
02:24 66.9 °F 62.3 °F 29.97 in WNW 3 mph 2.5 mph 85% 0.00 in 0 W/m2
02:29 66.7 °F 62.3 °F 29.97 in WNW 2.7 mph 1.6 mph 85.8% 0.00 in 0 W/m2
02:34 66.7 °F 62.3 °F 29.97 in WNW 2 mph 3 mph 86% 0.00 in 0 W/m2
02:39 66.5 °F 62.2 °F 29.97 in WNW 1.7 mph 3 mph 86% 0.00 in 0 W/m2
02:44 66.4 °F 62.5 °F 29.97 in West 2 mph 2 mph 87.3% 0.00 in 0 W/m2
02:49 66.4 °F 62.7 °F 29.97 in West 2.1 mph 2 mph 88% 0.00 in 0 W/m2
02:54 66.1 °F 62.5 °F 29.97 in West 2 mph 2 mph 88% 0.00 in 0 W/m2
02:59 66 °F 62.4 °F 29.97 in WSW 1.9 mph 0.7 mph 88% 0.00 in 0 W/m2
03:04 65.9 °F 62.3 °F 29.97 in NW 1.8 mph 2 mph 88% 0.00 in 0 W/m2
03:09 65.8 °F 62.2 °F 29.97 in NNW 0.6 mph 2 mph 88% 0.00 in 0 W/m2
03:14 65.8 °F 62.2 °F 29.97 in NNW 0.4 mph 2 mph 88% 0.00 in 0 W/m2
03:19 65.8 °F 62.3 °F 29.97 in Calm   1 mph 88.5% 0.00 in 0 W/m2
03:24 65.7 °F 62.4 °F 29.97 in Calm     89% 0.00 in 0 W/m2
03:29 65.7 °F 62.3 °F 29.97 in Calm     89% 0.00 in 0 W/m2
03:34 65.7 °F 62.3 °F 29.97 in North 0.1 mph   89% 0.00 in 0 W/m2
03:39 65.7 °F 62.3 °F 29.97 in North 0.6 mph 2 mph 89% 0.00 in 0 W/m2
03:44 65.7 °F 62.5 °F 29.97 in Calm   2 mph 89.8% 0.00 in 0 W/m2
03:49 65.7 °F 62.6 °F 29.97 in NNE 0.5 mph 1.1 mph 90% 0.00 in 0 W/m2
03:54 65.7 °F 62.6 °F 29.97 in NNE 2.2 mph 2 mph 90% 0.00 in 0 W/m2
03:59 65.7 °F 62.4 °F 29.97 in NNE 2.3 mph 2.2 mph 89.4% 0.00 in 0 W/m2
04:03 65.7 °F 62.3 °F 29.97 in NNE 1.9 mph 3 mph 89% 0.00 in 0 W/m2
04:09 65.8 °F 62.5 °F 29.97 in NNE 2.4 mph 2 mph 89% 0.00 in 0 W/m2
04:14 65.8 °F 62.4 °F 29.97 in NE 3.3 mph 4 mph 88.6% 0.00 in 0 W/m2
04:19 65.8 °F 62.2 °F 29.97 in ENE 2.2 mph 4 mph 88% 0.00 in 0 W/m2
04:24 65.9 °F 62.3 °F 29.97 in NE 2 mph 3 mph 88% 0.00 in 0 W/m2
04:29 65.8 °F 62.5 °F 29.97 in ENE 2 mph 2 mph 88.9% 0.00 in 0 W/m2
04:34 65.7 °F 62.6 °F 29.97 in SSW 2.2 mph 2 mph 89.7% 0.00 in 0 W/m2
04:39 65.5 °F 62.7 °F 29.97 in WSW 2.3 mph 2 mph 90.5% 0.00 in 0 W/m2
04:44 65.3 °F 62.8 °F 29.97 in NW 2.4 mph 2 mph 91.8% 0.00 in 0 W/m2
04:49 65.1 °F 63.2 °F 29.98 in NNE 3.1 mph 5 mph 93.5% 0.00 in 0 W/m2
04:54 65.1 °F 63.4 °F 29.98 in NE 1.5 mph 5 mph 94.2% 0.01 in 0 W/m2
04:59 64.9 °F 63.2 °F 29.98 in North 2.2 mph 2 mph 94.1% 0.02 in 0 W/m2
05:04 64.8 °F 63.3 °F 29.98 in WNW 2 mph 2 mph 94.9% 0.02 in 0 W/m2
05:09 64.7 °F 63.4 °F 29.98 in NNE 4 mph 3.1 mph 95.9% 0.03 in 0 W/m2
05:14 64.6 °F 63.4 °F 29.98 in NE 3.8 mph 5 mph 96% 0.03 in 0 W/m2
05:19 64.5 °F 63.5 °F 29.98 in NNE 3.7 mph 5 mph 96.7% 0.04 in 0 W/m2
05:24 64.3 °F 63.8 °F 29.98 in NNE 3.2 mph 4 mph 98.3% 0.04 in 0 W/m2
05:29 64 °F 63.8 °F 29.98 in SSE 2.7 mph 1.3 mph 99% 0.04 in 0 W/m2
05:34 63.9 °F 63.6 °F 29.98 in SE 0.9 mph 4 mph 99% 0.04 in 0 W/m2
05:39 63.9 °F 63.6 °F 29.98 in North 0.8 mph 2 mph 99% 0.04 in 1 W/m2
05:44 63.8 °F 63.5 °F 29.98 in NNW 1.5 mph 1.6 mph 99% 0.04 in 2 W/m2
05:49 63.7 °F 63.4 °F 29.97 in NW 1.8 mph 2 mph 99% 0.04 in 3 W/m2
05:54 63.7 °F 63.4 °F 29.97 in WNW 1.6 mph 2 mph 99% 0.04 in 5 W/m2
05:59 63.7 °F 63.4 °F 29.97 in NW 2.9 mph 2.7 mph 99% 0.03 in 8 W/m2
06:04 63.7 °F 63.4 °F 29.98 in NE 2.7 mph 4 mph 99% 0.02 in 8 W/m2
06:08 63.7 °F 63.4 °F 29.98 in NE 0.8 mph 4 mph 99% 0.02 in 9 W/m2
06:14 63.7 °F 63.4 °F 29.97 in Calm   1 mph 99% 0.02 in 11 W/m2
06:19 63.7 °F 63.4 °F 29.98 in SE 1.1 mph 1.3 mph 99% 0.01 in 12 W/m2
06:24 63.7 °F 63.4 °F 29.97 in East 0.8 mph 2 mph 99% 0.00 in 13 W/m2
06:29 63.7 °F 63.4 °F 29.97 in ENE 2.1 mph 2 mph 99% 0.00 in 14 W/m2
06:34 63.7 °F 63.4 °F 29.97 in WNW 1.5 mph 3 mph 99% 0.00 in 18 W/m2
06:39 63.7 °F 63.4 °F 29.97 in NW 0.4 mph 2 mph 99% 0.00 in 23 W/m2
06:44 63.7 °F 63.4 °F 29.97 in Calm   2 mph 99% 0.00 in 28 W/m2
06:49 63.7 °F 63.4 °F 29.97 in North 0.9 mph 1.1 mph 99% 0.00 in 34 W/m2
06:53 63.7 °F 63.4 °F 29.98 in NW 2 mph 2 mph 99% 0.00 in 38 W/m2
06:59 63.7 °F 63.4 °F 29.98 in West 1.8 mph 2 mph 99% 0.00 in 43 W/m2
07:04 63.9 °F 63.6 °F 29.98 in WNW 1.7 mph 2 mph 99% 0.00 in 51 W/m2
07:08 63.9 °F 63.6 °F 29.98 in West 1.3 mph 2 mph 99% 0.00 in 58 W/m2
07:13 64 °F 63.8 °F 29.98 in West 1 mph 2 mph 99% 0.00 in 70 W/m2
07:19 64 °F 63.8 °F 29.98 in North 1.6 mph 1.3 mph 99% 0.00 in 85 W/m2
07:24 64.1 °F 63.8 °F 29.98 in NNE 1.7 mph 2 mph 99% 0.00 in 95 W/m2
07:29 64.3 °F 64 °F 29.98 in NNE 1.4 mph 2 mph 99% 0.00 in 101 W/m2
07:34 64.6 °F 64.3 °F 29.98 in NNE 1 mph 2 mph 99% 0.00 in 111 W/m2
07:39 64.6 °F 64.3 °F 29.98 in ENE 1.7 mph 2 mph 99% 0.00 in 120 W/m2
07:44 64.7 °F 64.4 °F 29.98 in SE 2 mph 2 mph 99% 0.00 in 120 W/m2
07:49 64.8 °F 64.5 °F 29.98 in SSE 1 mph 3 mph 99% 0.00 in 114 W/m2
07:54 64.8 °F 64.5 °F 29.98 in Calm     99% 0.00 in 121 W/m2
07:59 65 °F 64.7 °F 29.98 in SSE 0.6 mph 0.2 mph 99% 0.00 in 135 W/m2
08:04 65.2 °F 64.9 °F 29.98 in Calm   1 mph 99% 0.00 in 147 W/m2
08:09 65.4 °F 65.1 °F 29.99 in North 0.5 mph 0.4 mph 99% 0.00 in 152 W/m2
08:14 65.5 °F 65.2 °F 29.99 in NNW 1.2 mph 2 mph 99% 0.00 in 151 W/m2
08:19 65.7 °F 65.5 °F 29.99 in WNW 1.1 mph 2 mph 99% 0.00 in 137 W/m2
08:24 65.9 °F 65.6 °F 29.99 in WNW 1.7 mph 1.1 mph 98.9% 0.00 in 128 W/m2
08:29 66 °F 65.5 °F 29.99 in NW 1.4 mph 2 mph 98.2% 0.00 in 149 W/m2
08:34 66.2 °F 65.9 °F 29.99 in NNW 1.9 mph 1.1 mph 99% 0.00 in 162 W/m2
08:39 66.4 °F 65.8 °F 29.99 in North 3.3 mph 3 mph 98.1% 0.00 in 171 W/m2
08:44 66.6 °F 66.1 °F 29.99 in North 2.5 mph 3 mph 98% 0.00 in 175 W/m2
08:49 66.8 °F 66.2 °F 29.99 in NNE 3.5 mph 2.5 mph 98% 0.00 in 180 W/m2
08:54 67 °F 66.4 °F 29.99 in NNE 2.8 mph 3 mph 98% 0.00 in 194 W/m2
08:59 67.2 °F 66.1 °F 29.99 in North 2.9 mph 2 mph 96.3% 0.00 in 211 W/m2
09:04 67.4 °F 66.2 °F 29.99 in North 3.4 mph 3.1 mph 96% 0.00 in 231 W/m2
09:09 67.6 °F 66.4 °F 29.99 in North 4.1 mph 5 mph 96% 0.00 in 245 W/m2
09:14 67.8 °F 66.4 °F 29.99 in North 3.3 mph 5 mph 95.4% 0.00 in 252 W/m2
09:19 67.9 °F 66.6 °F 29.99 in North 3.7 mph 4 mph 95.4% 0.00 in 254 W/m2
09:24 68.2 °F 66.5 °F 29.99 in North 3.1 mph 5 mph 94.2% 0.00 in 250 W/m2
09:29 68.4 °F 66.4 °F 29.99 in North 3.2 mph 5 mph 93.3% 0.00 in 228 W/m2
09:33 68.5 °F 66.4 °F 29.99 in North 2.7 mph 4 mph 93% 0.00 in 200 W/m2
09:39 68.6 °F 66 °F 29.99 in NNE 3.2 mph 4 mph 91.4% 0.00 in 194 W/m2
09:44 68.7 °F 66.5 °F 29.99 in NNE 2.8 mph 1.3 mph 92.8% 0.00 in 237 W/m2
09:49 68.9 °F 66.5 °F 29.99 in North 3 mph 4 mph 92.2% 0.00 in 244 W/m2
09:54 68.9 °F 66.2 °F 29.99 in NNE 3.3 mph 3 mph 90.9% 0.00 in 222 W/m2
09:59 68.8 °F 65.6 °F 29.99 in NNE 3.1 mph 1.6 mph 89.4% 0.00 in 210 W/m2
10:04 68.7 °F 65.3 °F 29.99 in NNE 3.1 mph 4 mph 89.1% 0.00 in 173 W/m2
10:09 68.7 °F 65.6 °F 29.99 in NNE 2.7 mph 4 mph 89.7% 0.00 in 156 W/m2
10:14 68.7 °F 65.4 °F 29.99 in NNE 2.5 mph 1.1 mph 89.3% 0.00 in 147 W/m2
10:18 68.6 °F 65.2 °F 29.99 in NE 1.9 mph 3 mph 88.9% 0.00 in 147 W/m2
10:24 68.7 °F 65.2 °F 29.99 in NE 3.7 mph 3.1 mph 88.7% 0.00 in 148 W/m2
10:29 68.8 °F 64.8 °F 29.99 in NNE 3.5 mph 5 mph 86.9% 0.00 in 148 W/m2
10:34 68.9 °F 65.2 °F 29.99 in NNE 3.3 mph 5 mph 88% 0.00 in 140 W/m2
10:39 69.1 °F 65.5 °F 29.99 in NNE 2 mph 4 mph 88.4% 0.00 in 151 W/m2
10:44 69.1 °F 65.1 °F 29.99 in NNE 1.8 mph 3 mph 87.1% 0.00 in 169 W/m2
10:49 69.2 °F 64.7 °F 29.99 in NNE 2.7 mph 3 mph 85.6% 0.00 in 186 W/m2
10:54 69.3 °F 64.5 °F 29.99 in NNE 2.3 mph 4 mph 84.7% 0.00 in 217 W/m2
10:59 69.4 °F 64.8 °F 29.99 in North 2.9 mph 3 mph 85.1% 0.00 in 242 W/m2
11:04 69.6 °F 64.9 °F 29.99 in North 2.5 mph 3 mph 85% 0.00 in 270 W/m2
11:08 69.8 °F 64.6 °F 29.99 in NNE 2.3 mph 0.9 mph 83.5% 0.00 in 285 W/m2
11:14 69.8 °F 64.7 °F 29.99 in NNE 3.7 mph 3.1 mph 83.9% 0.00 in 323 W/m2
11:19 70 °F 64.9 °F 29.99 in North 4.3 mph 2.2 mph 84% 0.00 in 324 W/m2
11:24 70.3 °F 65.3 °F 29.99 in North 4.4 mph 3.8 mph 84% 0.00 in 316 W/m2
11:29 70.6 °F 65.2 °F 29.99 in NNE 4.3 mph 5 mph 83% 0.00 in 344 W/m2
11:34 70.9 °F 65.6 °F 29.99 in NNE 4.2 mph 5 mph 83.5% 0.00 in 353 W/m2
11:39 71.2 °F 65.5 °F 29.98 in NNE 4.6 mph 5 mph 82.4% 0.00 in 368 W/m2
11:44 71.4 °F 65 °F 29.98 in NNE 4.3 mph 5 mph 80.2% 0.00 in 418 W/m2
11:49 71.5 °F 65 °F 29.98 in NNE 3.1 mph 5 mph 80% 0.00 in 432 W/m2
11:54 71.5 °F 64.8 °F 29.98 in NE 2.8 mph 4 mph 79.5% 0.00 in 353 W/m2
11:59 71.5 °F 65 °F 29.98 in NE 3.1 mph 4 mph 79.9% 0.00 in 286 W/m2
12:04 71.8 °F 64.9 °F 29.98 in NNE 3.4 mph 5 mph 79.1% 0.00 in 249 W/m2
12:08 71.9 °F 65.1 °F 29.98 in North 3.7 mph 3.1 mph 79.3% 0.00 in 280 W/m2
12:14 72 °F 65.1 °F 29.98 in North 4.3 mph 5 mph 79% 0.00 in 306 W/m2
12:19 72 °F 65.3 °F 29.98 in North 3.1 mph 5 mph 79.2% 0.00 in 349 W/m2
12:24 72.3 °F 65.2 °F 29.98 in North 3.5 mph 5 mph 78.5% 0.00 in 355 W/m2
12:29 72.4 °F 65.1 °F 29.98 in NNW 3.3 mph 5 mph 77.9% 0.00 in 364 W/m2
12:34 72.7 °F 65.3 °F 29.98 in NNW 3 mph 1.6 mph 77.5% 0.00 in 385 W/m2
12:39 72.7 °F 64.6 °F 29.98 in NNE 4.2 mph 4 mph 75.7% 0.00 in 373 W/m2
12:44 72.9 °F 64.9 °F 29.97 in NNE 4.1 mph 6 mph 76.1% 0.00 in 371 W/m2
12:49 73 °F 64.9 °F 29.97 in NNE 3 mph 6 mph 75.7% 0.00 in 346 W/m2
12:54 72.9 °F 64.7 °F 29.97 in NNE 4 mph 7 mph 75.5% 0.00 in 333 W/m2
12:59 72.7 °F 65.4 °F 29.97 in NE 5.1 mph 4 mph 78% 0.00 in 364 W/m2
13:04 72.6 °F 65.2 °F 29.97 in NE 3.5 mph 6 mph 77.7% 0.00 in 396 W/m2
13:09 72.6 °F 65.2 °F 29.97 in ENE 3.4 mph 5 mph 77.7% 0.00 in 486 W/m2
13:14 72.9 °F 65.9 °F 29.97 in ENE 3.7 mph 4 mph 78.6% 0.00 in 582 W/m2
13:19 73.6 °F 66.1 °F 29.97 in NNE 4.8 mph 5 mph 77.7% 0.00 in 481 W/m2
13:24 73.8 °F 65.5 °F 29.97 in NNE 2.5 mph 9 mph 75.4% 0.00 in 809 W/m2
13:29 74 °F 65.8 °F 29.96 in ENE 5.3 mph 3.4 mph 75.6% 0.00 in 820 W/m2
13:34 74.6 °F 65.6 °F 29.96 in ESE 4.7 mph 2.7 mph 73.8% 0.00 in 775 W/m2
13:39 75.1 °F 66 °F 29.96 in ENE 4.9 mph 5 mph 73.4% 0.00 in 783 W/m2
13:44 75.3 °F 65.7 °F 29.96 in NNE 3.3 mph 6 mph 72.2% 0.00 in 769 W/m2
13:49 75.5 °F 66.1 °F 29.96 in East 4.2 mph 5 mph 72.9% 0.00 in 757 W/m2
13:54 75.9 °F 65.9 °F 29.96 in East 4.8 mph 6 mph 71.3% 0.00 in 752 W/m2
13:59 75.7 °F 65.3 °F 29.95 in ENE 5.3 mph 6 mph 70.1% 0.00 in 716 W/m2
14:04 75.7 °F 65.6 °F 29.95 in ESE 3.7 mph 7 mph 70.9% 0.00 in 627 W/m2
14:09 75.8 °F 65.8 °F 29.95 in ESE 4.3 mph 5 mph 71% 0.00 in 523 W/m2
14:14 75.8 °F 65.6 °F 29.95 in East 5.6 mph 3.6 mph 70.5% 0.00 in 613 W/m2
14:19 76.2 °F 65.9 °F 29.95 in ENE 3.4 mph 7 mph 70.7% 0.00 in 707 W/m2
14:24 76.4 °F 65.9 °F 29.95 in NE 3.5 mph 5 mph 70% 0.00 in 717 W/m2
14:29 76.4 °F 65.8 °F 29.94 in ENE 3.8 mph 4 mph 70% 0.00 in 498 W/m2
14:34 76.4 °F 66.3 °F 29.94 in NE 4.6 mph 3.1 mph 71% 0.00 in 362 W/m2
14:39 76.3 °F 65.8 °F 29.94 in NE 2.6 mph 1.1 mph 70% 0.00 in 349 W/m2
14:44 76.4 °F 66.4 °F 29.94 in NNE 1.8 mph 0.7 mph 71.3% 0.00 in 351 W/m2
14:49 76.6 °F 65.7 °F 29.94 in NNW 2.6 mph 3 mph 69% 0.00 in 352 W/m2
14:54 76.7 °F 66 °F 29.94 in NW 3.4 mph 3.8 mph 69.5% 0.00 in 354 W/m2
14:59 76.8 °F 66.1 °F 29.94 in NNE 3.4 mph 5 mph 69.4% 0.00 in 330 W/m2
15:04 76.8 °F 65.8 °F 29.94 in NE 2.9 mph 5 mph 68.8% 0.00 in 378 W/m2
15:08 76.8 °F 66.1 °F 29.94 in NNE 3.9 mph 3.1 mph 69.3% 0.00 in 375 W/m2
15:13 77 °F 66 °F 29.93 in ENE 3.7 mph 5 mph 69% 0.00 in 371 W/m2
15:19 77.2 °F 66.4 °F 29.93 in ENE 3.6 mph 5 mph 69.5% 0.00 in 358 W/m2
15:24 77.4 °F 66.7 °F 29.93 in NE 2.4 mph 5 mph 69.5% 0.00 in 326 W/m2
15:29 77.5 °F 66.5 °F 29.93 in NNE 4.2 mph 4 mph 69% 0.00 in 315 W/m2
15:33 77.5 °F 66.5 °F 29.93 in ENE 5.8 mph 6 mph 68.8% 0.00 in 306 W/m2
15:39 77 °F 65.8 °F 29.93 in ESE 6.5 mph 4.2 mph 68.5% 0.00 in 303 W/m2
15:44 76.8 °F 66.1 °F 29.92 in ESE 5.3 mph 7 mph 69.5% 0.00 in 297 W/m2
15:49 76.9 °F 66.5 °F 29.92 in ESE 5.3 mph 3.8 mph 70.4% 0.00 in 291 W/m2
15:54 77.1 °F 66.8 °F 29.92 in ESE 6.2 mph 6.3 mph 70.5% 0.00 in 286 W/m2
15:59 77.1 °F 67 °F 29.92 in ESE 6 mph 7 mph 71.1% 0.00 in 277 W/m2
16:04 76.8 °F 66.7 °F 29.92 in ESE 5 mph 7 mph 70.9% 0.00 in 265 W/m2
16:08 76.7 °F 67 °F 29.92 in ESE 6 mph 7 mph 72% 0.00 in 254 W/m2
16:14 76.5 °F 66.8 °F 29.92 in SE 7 mph 7 mph 72% 0.00 in 252 W/m2
16:19 76.5 °F 67.2 °F 29.92 in ESE 7.2 mph 8 mph 72.8% 0.00 in 265 W/m2
16:24 76.6 °F 67 °F 29.92 in ESE 5.9 mph 8 mph 72.3% 0.00 in 267 W/m2
16:29 76.5 °F 66.7 °F 29.92 in SE 5.7 mph 7 mph 71.8% 0.00 in 279 W/m2
16:34 76.5 °F 66.8 °F 29.92 in SE 5.9 mph 6 mph 72.1% 0.00 in 277 W/m2
16:39 76.3 °F 67.1 °F 29.92 in SE 5.1 mph 7 mph 73.1% 0.00 in 231 W/m2
16:44 76.2 °F 67.2 °F 29.92 in SE 4.6 mph 6 mph 73.8% 0.00 in 195 W/m2
16:48 76.1 °F 67.3 °F 29.92 in SE 5.8 mph 3.8 mph 74.4% 0.00 in 189 W/m2
16:54 76.2 °F 67.6 °F 29.92 in ESE 6.1 mph 6 mph 74.6% 0.00 in 179 W/m2
16:59 76.3 °F 67.8 °F 29.92 in ESE 5.8 mph 8 mph 75% 0.00 in 171 W/m2
17:04 76.2 °F 67.4 °F 29.92 in East 6.2 mph 8 mph 74.2% 0.00 in 161 W/m2
17:09 75.9 °F 67.1 °F 29.92 in ESE 5.7 mph 8 mph 74.1% 0.00 in 159 W/m2
17:14 75.8 °F 67.1 °F 29.92 in ESE 4.2 mph 7 mph 74.5% 0.00 in 152 W/m2
17:19 75.7 °F 67.3 °F 29.91 in East 4.5 mph 5 mph 75.4% 0.00 in 147 W/m2
17:24 75.7 °F 67.7 °F 29.91 in ENE 5.3 mph 3.8 mph 76.1% 0.00 in 142 W/m2
17:29 75.6 °F 67.9 °F 29.91 in NE 3 mph 2 mph 77% 0.00 in 136 W/m2
17:34 75.6 °F 67.8 °F 29.91 in NE 2.9 mph 4 mph 77% 0.00 in 124 W/m2
17:39 75.6 °F 67.8 °F 29.91 in NE 2.8 mph 4 mph 77% 0.00 in 106 W/m2
17:44 75.5 °F 67.8 °F 29.91 in NE 2.7 mph 4 mph 77% 0.00 in 90 W/m2
17:49 75.4 °F 67.7 °F 29.91 in NE 2.8 mph 4 mph 77% 0.00 in 81 W/m2
17:54 75.4 °F 67.7 °F 29.91 in ESE 3.6 mph 4 mph 77% 0.00 in 74 W/m2
17:58 75.2 °F 67.5 °F 29.91 in SE 3.4 mph 5 mph 77% 0.00 in 68 W/m2
18:03 75.2 °F 67.6 °F 29.91 in SSE 2.7 mph 3 mph 77.3% 0.00 in 60 W/m2
18:08 75.2 °F 67.9 °F 29.91 in SSE 2.5 mph 3 mph 77.9% 0.00 in 68 W/m2
18:14 75 °F 67.5 °F 29.91 in SE 3 mph 3 mph 77.4% 0.00 in 73 W/m2
18:19 75 °F 67.7 °F 29.91 in SE 3.8 mph 4 mph 77.9% 0.00 in 79 W/m2
18:24 75 °F 67.5 °F 29.91 in ESE 2.9 mph 5 mph 77.6% 0.00 in 92 W/m2
18:29 75 °F 67.7 °F 29.91 in ESE 3.6 mph 4 mph 78% 0.00 in 91 W/m2
18:34 75 °F 67.8 °F 29.91 in ESE 3.5 mph 5 mph 78.3% 0.00 in 84 W/m2
18:39 75 °F 67.8 °F 29.91 in ESE 4.3 mph 5 mph 78.4% 0.00 in 79 W/m2
18:44 75 °F 67.7 °F 29.91 in East 4.3 mph 5 mph 78% 0.00 in 67 W/m2
18:49 75 °F 67.3 °F 29.91 in East 3.8 mph 2 mph 77.1% 0.00 in 64 W/m2
18:54 75 °F 67.6 °F 29.91 in East 2.5 mph 4 mph 77.6% 0.00 in 62 W/m2
18:59 75 °F 67.7 °F 29.91 in NE 2.2 mph 3 mph 78% 0.00 in 59 W/m2
19:03 75 °F 67.7 °F 29.91 in East 3.7 mph 5 mph 78% 0.00 in 51 W/m2
19:09 74.9 °F 67.7 °F 29.91 in ESE 3.3 mph 4 mph 78.2% 0.00 in 46 W/m2
19:14 74.8 °F 67.5 °F 29.91 in SE 2.9 mph 4 mph 78% 0.00 in 39 W/m2
19:19 74.7 °F 67.6 °F 29.91 in SE 3.3 mph 4 mph 78.5% 0.00 in 27 W/m2
19:24 74.7 °F 67.5 °F 29.91 in East 2.6 mph 4 mph 78.4% 0.00 in 19 W/m2
19:29 74.5 °F 67.2 °F 29.91 in ESE 2.3 mph 3 mph 78% 0.00 in 13 W/m2
19:34 74.5 °F 67.2 °F 29.91 in SSE 0.3 mph 3 mph 78% 0.00 in 8 W/m2
19:39 74.3 °F 67.1 °F 29.91 in South 2.1 mph 1.3 mph 78.2% 0.00 in 2 W/m2
19:43 74.1 °F 67.2 °F 29.91 in SSW 0.2 mph 0.2 mph 79% 0.00 in 1 W/m2
19:49 74 °F 67.1 °F 29.91 in NNW 1.8 mph 1.8 mph 79% 0.00 in 0 W/m2
19:54 73.8 °F 67.2 °F 29.91 in North 1.3 mph 0.7 mph 80% 0.00 in 0 W/m2
19:59 73.6 °F 67 °F 29.91 in North 1.4 mph 0.7 mph 80% 0.00 in 0 W/m2
20:04 73.4 °F 66.8 °F 29.91 in WNW 2.2 mph 2 mph 80% 0.00 in 0 W/m2
20:09 73.2 °F 66.8 °F 29.91 in NNW 2.6 mph 3 mph 80.4% 0.00 in 0 W/m2
Knjazevac, Serbia
Compliments of Weather Underground - 2 mb